طريف, Saudi Arabia

03:12 PM AST on لبراêر 08, 2016 (GMT +0300)
Turaif | | Change Station
CLOSE
Current Station
Airport
Location: Turaif,
Elevation: 2795 ft
Nearby Weather Stations

Elev 2795 ft 31.69 °N, 38.73 °E | Updated 12 minutes ago

Mostly Cloudy
غائم كلياً
52 °F
Feels Like 52 °F
N
12
ريح متغير ريح from غرب

هذا اليوم
High -- | Low -- °F
--% Chance of Precip.
Yesterday
High -- | Low -- °F
Precip. -- في
الضغط 30.15 في
وضوح الرؤية 6.2 أميال
سحابات غائم كلياً 4000 ft
نقطة الندى 41 °F
الرطوبة 67%
Rainfall 0.00 في
عمق الثلج Not available.
7:13 AM 6:05 PM
الهلال الأخير, 0% visible
METAR OETR 081200Z 27010KT 9999 BKN040 11/05 Q1021
الضغط 30.15 في
وضوح الرؤية 6.2 أميال
سحابات غائم كلياً 4000 ft
نقطة الندى 41 °F
الرطوبة 67%
Rainfall 0.00 في
عمق الثلج Not available.
7:13 AM 6:05 PM
الهلال الأخير, 0% visible
METAR OETR 081200Z 27010KT 9999 BKN040 11/05 Q1021

10-Day Weather Forecast

No radar image for this location.
×

Almanac

علم الفلك

Feb. 08, 2016 Rise Set
Actual Time
Civil Twilight
Nautical Twilight
Astronomical Twilight
قمر
Length Of Visible Light
طول الیوم
Tomorrow will be .
, % of the Moon is Illuminated

Today's Extremes

Country Highs Country Lows

Community

WunderPhotos

Upload Photos

1,891,420 photos uploaded!

WunderBlog® & News

Nearby

جودة الهواء

  جودة الهواء AQ Index Pollutant
Not available.

عمق الثلج

Station Depth Elevation

Earthquake Activity

City Distance Mag. Time & Date
Minimum magnitude displayed is 2.5.

Coastal Water Temperatures

مكان درجات الحرارة

Stations

Nearby Weather Stations

Station Location الحرارة رياح باردة نقطة الندى الرطوبة ريح Precip. Elev تحديث Type